sensor_id;sensor_type;location;lat;lon;timestamp;pressure;altitude;pressure_sealevel;temperature;humidity
55916;BME280;41826;53.246;-6.670;2022-11-15T00:01:08;97835.44;;;11.75;100.00
55916;BME280;41826;53.246;-6.670;2022-11-15T00:03:34;97834.78;;;11.79;100.00
55916;BME280;41826;53.246;-6.670;2022-11-15T00:06:03;97825.06;;;11.80;100.00
55916;BME280;41826;53.246;-6.670;2022-11-15T00:08:30;97818.56;;;11.82;100.00
55916;BME280;41826;53.246;-6.670;2022-11-15T00:11:00;97828.28;;;11.82;100.00
55916;BME280;41826;53.246;-6.670;2022-11-15T00:13:27;97826.31;;;11.77;100.00
55916;BME280;41826;53.246;-6.670;2022-11-15T00:15:52;97798.56;;;11.81;100.00
55916;BME280;41826;53.246;-6.670;2022-11-15T00:18:18;97797.53;;;11.82;100.00
55916;BME280;41826;53.246;-6.670;2022-11-15T00:20:46;97798.34;;;11.83;100.00
55916;BME280;41826;53.246;-6.670;2022-11-15T00:23:12;97786.47;;;11.80;100.00
55916;BME280;41826;53.246;-6.670;2022-11-15T00:25:37;97780.75;;;11.83;100.00
55916;BME280;41826;53.246;-6.670;2022-11-15T00:28:03;97786.00;;;11.83;100.00
55916;BME280;41826;53.246;-6.670;2022-11-15T00:30:29;97772.63;;;11.85;100.00
55916;BME280;41826;53.246;-6.670;2022-11-15T00:32:54;97783.59;;;11.82;100.00
55916;BME280;41826;53.246;-6.670;2022-11-15T00:35:20;97768.63;;;11.82;100.00
55916;BME280;41826;53.246;-6.670;2022-11-15T00:37:45;97778.00;;;11.78;100.00
55916;BME280;41826;53.246;-6.670;2022-11-15T00:40:13;97775.50;;;11.83;100.00
55916;BME280;41826;53.246;-6.670;2022-11-15T00:42:38;97764.75;;;11.85;100.00
55916;BME280;41826;53.246;-6.670;2022-11-15T00:45:04;97764.56;;;11.86;100.00
55916;BME280;41826;53.246;-6.670;2022-11-15T00:47:29;97764.91;;;11.90;100.00
55916;BME280;41826;53.246;-6.670;2022-11-15T00:49:55;97764.69;;;11.91;100.00
55916;BME280;41826;53.246;-6.670;2022-11-15T00:52:20;97757.47;;;11.87;100.00
55916;BME280;41826;53.246;-6.670;2022-11-15T00:54:46;97750.00;;;11.84;100.00
55916;BME280;41826;53.246;-6.670;2022-11-15T00:57:11;97752.84;;;11.82;100.00
55916;BME280;41826;53.246;-6.670;2022-11-15T00:59:36;97749.06;;;11.78;100.00
55916;BME280;41826;53.246;-6.670;2022-11-15T01:02:02;97760.84;;;11.76;100.00
55916;BME280;41826;53.246;-6.670;2022-11-15T01:04:27;97749.53;;;11.75;100.00
55916;BME280;41826;53.246;-6.670;2022-11-15T01:06:53;97742.31;;;11.70;100.00
55916;BME280;41826;53.246;-6.670;2022-11-15T01:09:18;97747.56;;;11.70;100.00
55916;BME280;41826;53.246;-6.670;2022-11-15T01:11:44;97744.56;;;11.67;100.00
55916;BME280;41826;53.246;-6.670;2022-11-15T01:14:12;97739.09;;;11.68;100.00
55916;BME280;41826;53.246;-6.670;2022-11-15T01:16:38;97754.88;;;11.68;100.00
55916;BME280;41826;53.246;-6.670;2022-11-15T01:19:03;97767.41;;;11.66;100.00
55916;BME280;41826;53.246;-6.670;2022-11-15T01:21:29;97824.09;;;11.62;100.00
55916;BME280;41826;53.246;-6.670;2022-11-15T01:23:55;97832.19;;;11.61;100.00
55916;BME280;41826;53.246;-6.670;2022-11-15T01:26:22;97833.88;;;11.55;100.00
55916;BME280;41826;53.246;-6.670;2022-11-15T01:28:48;97833.34;;;11.46;100.00
55916;BME280;41826;53.246;-6.670;2022-11-15T01:31:19;97835.03;;;11.41;100.00
55916;BME280;41826;53.246;-6.670;2022-11-15T01:33:45;97820.31;;;11.40;100.00
55916;BME280;41826;53.246;-6.670;2022-11-15T01:36:14;97829.03;;;11.34;100.00
55916;BME280;41826;53.246;-6.670;2022-11-15T01:38:40;97843.72;;;11.23;100.00
55916;BME280;41826;53.246;-6.670;2022-11-15T01:41:11;97841.66;;;11.06;100.00
55916;BME280;41826;53.246;-6.670;2022-11-15T01:43:39;97839.53;;;10.97;100.00
55916;BME280;41826;53.246;-6.670;2022-11-15T01:48:52;97857.44;;;10.81;100.00
55916;BME280;41826;53.246;-6.670;2022-11-15T01:51:21;97853.34;;;10.85;100.00
55916;BME280;41826;53.246;-6.670;2022-11-15T01:53:52;97850.63;;;10.74;100.00
55916;BME280;41826;53.246;-6.670;2022-11-15T01:56:23;97856.69;;;10.74;100.00
55916;BME280;41826;53.246;-6.670;2022-11-15T01:58:51;97855.59;;;10.82;100.00
55916;BME280;41826;53.246;-6.670;2022-11-15T02:01:19;97852.91;;;10.89;100.00
55916;BME280;41826;53.246;-6.670;2022-11-15T02:06:46;97852.84;;;10.95;100.00
55916;BME280;41826;53.246;-6.670;2022-11-15T02:09:13;97858.59;;;10.85;100.00
55916;BME280;41826;53.246;-6.670;2022-11-15T02:11:39;97869.81;;;9.97;100.00
55916;BME280;41826;53.246;-6.670;2022-11-15T02:14:05;97858.28;;;10.12;100.00
55916;BME280;41826;53.246;-6.670;2022-11-15T02:16:59;97867.72;;;10.19;100.00
55916;BME280;41826;53.246;-6.670;2022-11-15T02:25:36;97870.75;;;9.78;100.00
55916;BME280;41826;53.246;-6.670;2022-11-15T02:32:54;97895.81;;;9.41;100.00
55916;BME280;41826;53.246;-6.670;2022-11-15T02:37:58;97910.16;;;9.18;100.00
55916;BME280;41826;53.246;-6.670;2022-11-15T02:40:44;97912.41;;;9.86;100.00
55916;BME280;41826;53.246;-6.670;2022-11-15T02:43:13;97912.09;;;9.63;100.00
55916;BME280;41826;53.246;-6.670;2022-11-15T02:46:22;97929.59;;;9.69;100.00
55916;BME280;41826;53.246;-6.670;2022-11-15T02:49:14;97933.06;;;9.56;100.00
55916;BME280;41826;53.246;-6.670;2022-11-15T02:51:41;97929.22;;;9.65;100.00
55916;BME280;41826;53.246;-6.670;2022-11-15T02:54:07;97934.06;;;9.62;100.00
55916;BME280;41826;53.246;-6.670;2022-11-15T02:56:32;97926.19;;;9.68;100.00
55916;BME280;41826;53.246;-6.670;2022-11-15T03:04:47;97929.41;;;9.64;100.00
55916;BME280;41826;53.246;-6.670;2022-11-15T03:10:46;97937.13;;;9.25;100.00
55916;BME280;41826;53.246;-6.670;2022-11-15T03:16:19;97935.53;;;8.91;100.00
55916;BME280;41826;53.246;-6.670;2022-11-15T03:18:52;97934.53;;;8.79;100.00
55916;BME280;41826;53.246;-6.670;2022-11-15T03:21:21;97932.50;;;8.67;100.00
55916;BME280;41826;53.246;-6.670;2022-11-15T03:23:48;97935.31;;;8.66;100.00
55916;BME280;41826;53.246;-6.670;2022-11-15T03:26:16;97945.56;;;8.67;100.00
55916;BME280;41826;53.246;-6.670;2022-11-15T03:28:55;97942.78;;;8.96;100.00
55916;BME280;41826;53.246;-6.670;2022-11-15T03:31:36;97951.44;;;8.89;100.00
55916;BME280;41826;53.246;-6.670;2022-11-15T03:34:27;97953.03;;;8.77;100.00
55916;BME280;41826;53.246;-6.670;2022-11-15T03:36:55;97943.78;;;9.15;100.00
55916;BME280;41826;53.246;-6.670;2022-11-15T03:39:21;97954.47;;;9.00;100.00
55916;BME280;41826;53.246;-6.670;2022-11-15T03:41:52;97951.25;;;9.04;100.00
55916;BME280;41826;53.246;-6.670;2022-11-15T03:44:34;97957.06;;;8.93;100.00
55916;BME280;41826;53.246;-6.670;2022-11-15T03:47:21;97958.47;;;8.82;100.00
55916;BME280;41826;53.246;-6.670;2022-11-15T03:49:53;97946.59;;;8.80;100.00
55916;BME280;41826;53.246;-6.670;2022-11-15T03:52:21;97949.00;;;8.61;100.00
55916;BME280;41826;53.246;-6.670;2022-11-15T03:54:53;97944.19;;;8.85;100.00
55916;BME280;41826;53.246;-6.670;2022-11-15T03:57:18;97945.78;;;8.79;100.00
55916;BME280;41826;53.246;-6.670;2022-11-15T03:59:47;97943.38;;;8.98;100.00
55916;BME280;41826;53.246;-6.670;2022-11-15T04:02:13;97948.03;;;9.02;100.00
55916;BME280;41826;53.246;-6.670;2022-11-15T04:04:39;97940.59;;;8.99;100.00
55916;BME280;41826;53.246;-6.670;2022-11-15T04:07:04;97943.59;;;9.09;100.00
55916;BME280;41826;53.246;-6.670;2022-11-15T04:09:30;97956.88;;;8.81;100.00
55916;BME280;41826;53.246;-6.670;2022-11-15T04:11:55;97951.84;;;8.93;100.00
55916;BME280;41826;53.246;-6.670;2022-11-15T04:14:21;97949.75;;;8.55;100.00
55916;BME280;41826;53.246;-6.670;2022-11-15T04:16:46;97944.53;;;8.55;100.00
55916;BME280;41826;53.246;-6.670;2022-11-15T04:19:11;97938.88;;;8.45;100.00
55916;BME280;41826;53.246;-6.670;2022-11-15T04:21:55;97953.81;;;8.64;100.00
55916;BME280;41826;53.246;-6.670;2022-11-15T04:24:39;97945.34;;;8.62;100.00
55916;BME280;41826;53.246;-6.670;2022-11-15T04:27:04;97946.41;;;8.20;100.00
55916;BME280;41826;53.246;-6.670;2022-11-15T04:29:29;97942.03;;;8.27;100.00
55916;BME280;41826;53.246;-6.670;2022-11-15T04:32:05;97946.66;;;8.32;100.00
55916;BME280;41826;53.246;-6.670;2022-11-15T04:34:32;97942.78;;;8.14;100.00
55916;BME280;41826;53.246;-6.670;2022-11-15T04:36:58;97945.75;;;7.98;100.00
55916;BME280;41826;53.246;-6.670;2022-11-15T04:39:39;97929.97;;;8.26;100.00
55916;BME280;41826;53.246;-6.670;2022-11-15T04:42:05;97932.97;;;8.30;100.00
55916;BME280;41826;53.246;-6.670;2022-11-15T04:44:30;97940.44;;;8.33;100.00
55916;BME280;41826;53.246;-6.670;2022-11-15T04:46:56;97919.00;;;8.44;100.00
55916;BME280;41826;53.246;-6.670;2022-11-15T04:49:22;97914.59;;;8.51;100.00
55916;BME280;41826;53.246;-6.670;2022-11-15T04:51:47;97912.88;;;8.23;100.00
55916;BME280;41826;53.246;-6.670;2022-11-15T04:54:13;97910.59;;;8.07;100.00
55916;BME280;41826;53.246;-6.670;2022-11-15T04:56:38;97921.09;;;8.14;100.00
55916;BME280;41826;53.246;-6.670;2022-11-15T04:59:03;97922.72;;;7.73;100.00
55916;BME280;41826;53.246;-6.670;2022-11-15T05:01:29;97925.69;;;7.64;100.00
55916;BME280;41826;53.246;-6.670;2022-11-15T05:03:54;97928.97;;;7.72;100.00
55916;BME280;41826;53.246;-6.670;2022-11-15T05:06:38;97921.19;;;7.92;100.00
55916;BME280;41826;53.246;-6.670;2022-11-15T05:09:03;97928.06;;;8.00;100.00
55916;BME280;41826;53.246;-6.670;2022-11-15T05:11:29;97933.28;;;8.00;100.00
55916;BME280;41826;53.246;-6.670;2022-11-15T05:13:54;97941.94;;;8.07;100.00
55916;BME280;41826;53.246;-6.670;2022-11-15T05:16:20;97956.56;;;7.95;100.00
55916;BME280;41826;53.246;-6.670;2022-11-15T05:18:45;97950.50;;;7.81;100.00
55916;BME280;41826;53.246;-6.670;2022-11-15T05:21:12;97956.13;;;7.85;100.00
55916;BME280;41826;53.246;-6.670;2022-11-15T05:23:38;97953.66;;;7.76;100.00
55916;BME280;41826;53.246;-6.670;2022-11-15T05:26:05;97949.13;;;7.57;100.00
55916;BME280;41826;53.246;-6.670;2022-11-15T05:28:31;97955.44;;;7.34;100.00
55916;BME280;41826;53.246;-6.670;2022-11-15T05:31:10;97971.19;;;7.48;100.00
55916;BME280;41826;53.246;-6.670;2022-11-15T05:33:37;97988.84;;;7.46;100.00
55916;BME280;41826;53.246;-6.670;2022-11-15T05:36:06;97974.75;;;7.40;100.00
55916;BME280;41826;53.246;-6.670;2022-11-15T05:38:33;97965.16;;;7.47;100.00
55916;BME280;41826;53.246;-6.670;2022-11-15T05:41:00;97973.47;;;7.29;100.00
55916;BME280;41826;53.246;-6.670;2022-11-15T05:43:26;97965.97;;;7.48;100.00
55916;BME280;41826;53.246;-6.670;2022-11-15T05:45:53;97969.94;;;7.44;100.00
55916;BME280;41826;53.246;-6.670;2022-11-15T05:48:18;97979.81;;;7.20;100.00
55916;BME280;41826;53.246;-6.670;2022-11-15T05:50:46;97997.75;;;7.08;100.00
55916;BME280;41826;53.246;-6.670;2022-11-15T05:53:14;97990.16;;;7.07;100.00
55916;BME280;41826;53.246;-6.670;2022-11-15T05:55:41;97993.03;;;7.19;100.00
55916;BME280;41826;53.246;-6.670;2022-11-15T05:58:07;97991.50;;;7.24;100.00
55916;BME280;41826;53.246;-6.670;2022-11-15T06:00:32;97992.84;;;7.20;100.00
55916;BME280;41826;53.246;-6.670;2022-11-15T06:02:58;97982.44;;;6.99;100.00
55916;BME280;41826;53.246;-6.670;2022-11-15T06:05:23;97973.06;;;6.83;100.00
55916;BME280;41826;53.246;-6.670;2022-11-15T06:07:49;97967.84;;;6.61;100.00
55916;BME280;41826;53.246;-6.670;2022-11-15T06:10:14;97976.84;;;6.59;100.00
55916;BME280;41826;53.246;-6.670;2022-11-15T06:12:40;97976.84;;;6.59;100.00
55916;BME280;41826;53.246;-6.670;2022-11-15T06:15:06;97982.28;;;6.79;100.00
55916;BME280;41826;53.246;-6.670;2022-11-15T06:17:31;97988.91;;;7.03;100.00
55916;BME280;41826;53.246;-6.670;2022-11-15T06:19:56;97990.50;;;7.04;100.00
55916;BME280;41826;53.246;-6.670;2022-11-15T06:22:22;97992.53;;;7.08;100.00
55916;BME280;41826;53.246;-6.670;2022-11-15T06:24:47;98009.44;;;7.12;100.00
55916;BME280;41826;53.246;-6.670;2022-11-15T06:27:13;98002.88;;;6.95;100.00
55916;BME280;41826;53.246;-6.670;2022-11-15T06:29:38;98008.50;;;6.99;100.00
55916;BME280;41826;53.246;-6.670;2022-11-15T06:32:04;98016.09;;;6.93;100.00
55916;BME280;41826;53.246;-6.670;2022-11-15T06:34:29;98014.78;;;6.83;100.00
55916;BME280;41826;53.246;-6.670;2022-11-15T06:36:54;98018.53;;;6.73;100.00
55916;BME280;41826;53.246;-6.670;2022-11-15T06:39:20;98015.09;;;6.94;100.00
55916;BME280;41826;53.246;-6.670;2022-11-15T06:41:45;98017.00;;;6.86;100.00
55916;BME280;41826;53.246;-6.670;2022-11-15T06:44:11;98015.84;;;6.88;100.00
55916;BME280;41826;53.246;-6.670;2022-11-15T06:46:36;98019.06;;;6.90;100.00
55916;BME280;41826;53.246;-6.670;2022-11-15T06:49:01;98015.16;;;6.80;100.00
55916;BME280;41826;53.246;-6.670;2022-11-15T06:51:29;98016.97;;;6.79;100.00
55916;BME280;41826;53.246;-6.670;2022-11-15T06:53:55;98019.56;;;6.79;100.00
55916;BME280;41826;53.246;-6.670;2022-11-15T06:56:20;98020.66;;;6.70;100.00
55916;BME280;41826;53.246;-6.670;2022-11-15T06:58:49;98024.84;;;6.86;100.00
55916;BME280;41826;53.246;-6.670;2022-11-15T07:01:22;98023.81;;;6.65;100.00
55916;BME280;41826;53.246;-6.670;2022-11-15T07:03:47;98041.06;;;6.81;100.00
55916;BME280;41826;53.246;-6.670;2022-11-15T07:06:12;98039.28;;;6.67;100.00
55916;BME280;41826;53.246;-6.670;2022-11-15T07:08:38;98033.25;;;6.81;100.00
55916;BME280;41826;53.246;-6.670;2022-11-15T07:11:06;98038.47;;;6.81;100.00
55916;BME280;41826;53.246;-6.670;2022-11-15T07:13:32;98033.44;;;6.65;100.00
55916;BME280;41826;53.246;-6.670;2022-11-15T07:16:04;98028.41;;;6.63;100.00
55916;BME280;41826;53.246;-6.670;2022-11-15T07:18:30;98028.56;;;6.77;100.00
55916;BME280;41826;53.246;-6.670;2022-11-15T07:20:55;98027.63;;;6.48;100.00
55916;BME280;41826;53.246;-6.670;2022-11-15T07:23:25;98022.22;;;6.64;100.00
55916;BME280;41826;53.246;-6.670;2022-11-15T07:25:50;98022.66;;;6.68;100.00
55916;BME280;41826;53.246;-6.670;2022-11-15T07:28:15;98016.63;;;6.46;100.00
55916;BME280;41826;53.246;-6.670;2022-11-15T07:30:41;98019.75;;;6.41;100.00
55916;BME280;41826;53.246;-6.670;2022-11-15T07:33:06;98012.59;;;6.65;100.00
55916;BME280;41826;53.246;-6.670;2022-11-15T07:35:31;98006.50;;;6.58;100.00
55916;BME280;41826;53.246;-6.670;2022-11-15T07:38:01;98019.56;;;6.43;100.00
55916;BME280;41826;53.246;-6.670;2022-11-15T07:40:29;98021.44;;;6.49;100.00
55916;BME280;41826;53.246;-6.670;2022-11-15T07:43:05;98016.69;;;6.38;100.00
55916;BME280;41826;53.246;-6.670;2022-11-15T07:45:32;98026.78;;;6.26;100.00
55916;BME280;41826;53.246;-6.670;2022-11-15T07:47:59;98024.81;;;6.28;100.00
55916;BME280;41826;53.246;-6.670;2022-11-15T07:50:26;98032.69;;;6.35;100.00
55916;BME280;41826;53.246;-6.670;2022-11-15T07:52:55;98038.19;;;6.25;100.00
55916;BME280;41826;53.246;-6.670;2022-11-15T07:55:24;98035.78;;;6.23;100.00
55916;BME280;41826;53.246;-6.670;2022-11-15T07:57:50;98040.47;;;6.13;100.00
55916;BME280;41826;53.246;-6.670;2022-11-15T08:00:16;98038.28;;;6.32;100.00
55916;BME280;41826;53.246;-6.670;2022-11-15T08:02:42;98047.63;;;6.26;100.00
55916;BME280;41826;53.246;-6.670;2022-11-15T08:05:08;98034.63;;;6.26;100.00
55916;BME280;41826;53.246;-6.670;2022-11-15T08:07:33;98047.19;;;6.07;100.00
55916;BME280;41826;53.246;-6.670;2022-11-15T08:09:59;98038.75;;;6.05;100.00
55916;BME280;41826;53.246;-6.670;2022-11-15T08:12:27;98031.72;;;5.91;100.00
55916;BME280;41826;53.246;-6.670;2022-11-15T08:14:54;98040.53;;;5.90;100.00
55916;BME280;41826;53.246;-6.670;2022-11-15T08:17:20;98036.41;;;6.11;100.00
55916;BME280;41826;53.246;-6.670;2022-11-15T08:19:45;98038.19;;;6.25;100.00
55916;BME280;41826;53.246;-6.670;2022-11-15T08:22:11;98027.78;;;6.25;100.00
55916;BME280;41826;53.246;-6.670;2022-11-15T08:24:36;98029.78;;;6.23;100.00
55916;BME280;41826;53.246;-6.670;2022-11-15T08:27:01;98043.88;;;6.14;100.00
55916;BME280;41826;53.246;-6.670;2022-11-15T08:29:27;98047.16;;;6.37;100.00
55916;BME280;41826;53.246;-6.670;2022-11-15T08:31:54;98043.75;;;6.51;100.00
55916;BME280;41826;53.246;-6.670;2022-11-15T08:34:20;98047.88;;;6.46;100.00
55916;BME280;41826;53.246;-6.670;2022-11-15T08:36:45;98053.75;;;6.33;100.00
55916;BME280;41826;53.246;-6.670;2022-11-15T08:39:11;98058.44;;;6.23;100.00
55916;BME280;41826;53.246;-6.670;2022-11-15T08:41:38;98054.09;;;6.15;100.00
55916;BME280;41826;53.246;-6.670;2022-11-15T08:44:03;98059.66;;;6.12;100.00
55916;BME280;41826;53.246;-6.670;2022-11-15T08:46:29;98058.97;;;6.03;100.00
55916;BME280;41826;53.246;-6.670;2022-11-15T08:48:54;98049.13;;;6.35;100.00
55916;BME280;41826;53.246;-6.670;2022-11-15T08:51:19;98047.84;;;6.61;100.00
55916;BME280;41826;53.246;-6.670;2022-11-15T08:53:45;98050.88;;;6.79;100.00
55916;BME280;41826;53.246;-6.670;2022-11-15T08:56:12;98051.28;;;6.83;100.00
55916;BME280;41826;53.246;-6.670;2022-11-15T08:58:38;98053.84;;;6.98;100.00
55916;BME280;41826;53.246;-6.670;2022-11-15T09:01:04;98050.00;;;6.93;100.00
55916;BME280;41826;53.246;-6.670;2022-11-15T09:03:30;98057.00;;;6.93;100.00
55916;BME280;41826;53.246;-6.670;2022-11-15T09:05:57;98048.25;;;7.01;100.00
55916;BME280;41826;53.246;-6.670;2022-11-15T09:08:23;98048.34;;;7.07;100.00
55916;BME280;41826;53.246;-6.670;2022-11-15T09:10:49;98045.91;;;7.06;100.00
55916;BME280;41826;53.246;-6.670;2022-11-15T09:13:15;98041.94;;;7.10;100.00
55916;BME280;41826;53.246;-6.670;2022-11-15T09:15:40;98044.09;;;7.06;100.00
55916;BME280;41826;53.246;-6.670;2022-11-15T09:18:05;98042.44;;;7.20;100.00
55916;BME280;41826;53.246;-6.670;2022-11-15T09:20:31;98043.16;;;7.14;100.00
55916;BME280;41826;53.246;-6.670;2022-11-15T09:23:00;98036.25;;;7.06;100.00
55916;BME280;41826;53.246;-6.670;2022-11-15T09:25:27;98031.88;;;7.07;100.00
55916;BME280;41826;53.246;-6.670;2022-11-15T09:27:52;98025.47;;;7.09;100.00
55916;BME280;41826;53.246;-6.670;2022-11-15T09:30:18;98032.38;;;7.17;100.00
55916;BME280;41826;53.246;-6.670;2022-11-15T09:32:43;98030.63;;;7.03;100.00
55916;BME280;41826;53.246;-6.670;2022-11-15T09:35:08;98034.16;;;6.95;100.00
55916;BME280;41826;53.246;-6.670;2022-11-15T09:37:34;98031.19;;;6.77;100.00
55916;BME280;41826;53.246;-6.670;2022-11-15T09:39:59;98022.94;;;6.94;100.00
55916;BME280;41826;53.246;-6.670;2022-11-15T09:47:54;98006.59;;;7.07;100.00
55916;BME280;41826;53.246;-6.670;2022-11-15T09:50:51;98008.81;;;6.67;100.00
55916;BME280;41826;53.246;-6.670;2022-11-15T09:53:41;98002.94;;;6.80;100.00
55916;BME280;41826;53.246;-6.670;2022-11-15T09:56:18;98000.38;;;6.65;100.00
55916;BME280;41826;53.246;-6.670;2022-11-15T10:04:30;97999.91;;;7.26;100.00
55916;BME280;41826;53.246;-6.670;2022-11-15T10:12:28;98005.13;;;7.26;100.00
55916;BME280;41826;53.246;-6.670;2022-11-15T10:15:11;98000.41;;;7.36;100.00
55916;BME280;41826;53.246;-6.670;2022-11-15T10:20:20;98008.59;;;7.55;100.00
55916;BME280;41826;53.246;-6.670;2022-11-15T10:23:01;98009.41;;;7.34;100.00
55916;BME280;41826;53.246;-6.670;2022-11-15T10:25:31;97998.47;;;7.45;100.00
55916;BME280;41826;53.246;-6.670;2022-11-15T10:30:46;98002.22;;;7.36;100.00
55916;BME280;41826;53.246;-6.670;2022-11-15T10:33:26;97997.75;;;7.58;100.00
55916;BME280;41826;53.246;-6.670;2022-11-15T10:41:30;97988.63;;;7.75;100.00
55916;BME280;41826;53.246;-6.670;2022-11-15T10:44:21;97975.00;;;7.80;100.00
55916;BME280;41826;53.246;-6.670;2022-11-15T10:47:04;97978.94;;;7.69;100.00
55916;BME280;41826;53.246;-6.670;2022-11-15T10:49:31;97974.78;;;7.81;100.00
55916;BME280;41826;53.246;-6.670;2022-11-15T10:52:22;97962.56;;;7.89;100.00
55916;BME280;41826;53.246;-6.670;2022-11-15T10:54:59;97970.19;;;7.84;100.00
55916;BME280;41826;53.246;-6.670;2022-11-15T10:57:32;97971.31;;;7.74;100.00
55916;BME280;41826;53.246;-6.670;2022-11-15T11:00:36;97976.19;;;7.77;100.00
55916;BME280;41826;53.246;-6.670;2022-11-15T11:03:04;97965.81;;;7.91;100.00
55916;BME280;41826;53.246;-6.670;2022-11-15T11:05:34;97968.88;;;7.66;100.00
55916;BME280;41826;53.246;-6.670;2022-11-15T11:10:52;97967.97;;;7.80;100.00
55916;BME280;41826;53.246;-6.670;2022-11-15T11:13:38;97959.78;;;7.90;100.00
55916;BME280;41826;53.246;-6.670;2022-11-15T11:19:14;97952.53;;;7.86;100.00
55916;BME280;41826;53.246;-6.670;2022-11-15T11:24:43;97949.16;;;7.98;100.00
55916;BME280;41826;53.246;-6.670;2022-11-15T11:27:21;97943.97;;;8.12;100.00
55916;BME280;41826;53.246;-6.670;2022-11-15T11:35:14;97936.22;;;8.32;100.00
55916;BME280;41826;53.246;-6.670;2022-11-15T11:37:51;97929.38;;;8.31;100.00
55916;BME280;41826;53.246;-6.670;2022-11-15T11:40:30;97933.16;;;8.21;100.00
55916;BME280;41826;53.246;-6.670;2022-11-15T11:43:37;97938.59;;;8.20;100.00
55916;BME280;41826;53.246;-6.670;2022-11-15T11:49:09;97926.72;;;8.17;100.00
55916;BME280;41826;53.246;-6.670;2022-11-15T11:54:22;97924.53;;;8.21;100.00
55916;BME280;41826;53.246;-6.670;2022-11-15T11:56:48;97925.16;;;8.30;100.00
55916;BME280;41826;53.246;-6.670;2022-11-15T12:02:21;97930.56;;;8.21;100.00
55916;BME280;41826;53.246;-6.670;2022-11-15T12:04:51;97934.97;;;8.28;100.00
55916;BME280;41826;53.246;-6.670;2022-11-15T12:07:29;97928.25;;;8.46;100.00
55916;BME280;41826;53.246;-6.670;2022-11-15T12:10:28;97928.59;;;8.37;100.00
55916;BME280;41826;53.246;-6.670;2022-11-15T12:13:10;97921.44;;;8.59;100.00
55916;BME280;41826;53.246;-6.670;2022-11-15T12:15:44;97923.97;;;8.39;100.00
55916;BME280;41826;53.246;-6.670;2022-11-15T12:18:13;97915.56;;;8.50;100.00
55916;BME280;41826;53.246;-6.670;2022-11-15T12:20:42;97907.31;;;8.53;100.00
55916;BME280;41826;53.246;-6.670;2022-11-15T12:23:23;97909.50;;;8.43;100.00
55916;BME280;41826;53.246;-6.670;2022-11-15T12:26:05;97907.72;;;8.50;100.00
55916;BME280;41826;53.246;-6.670;2022-11-15T12:31:21;97887.22;;;8.67;100.00
55916;BME280;41826;53.246;-6.670;2022-11-15T12:33:49;97890.03;;;8.65;100.00
55916;BME280;41826;53.246;-6.670;2022-11-15T12:38:53;97888.22;;;8.53;100.00
55916;BME280;41826;53.246;-6.670;2022-11-15T12:41:22;97893.66;;;8.64;100.00
55916;BME280;41826;53.246;-6.670;2022-11-15T12:43:48;97886.84;;;8.63;100.00
55916;BME280;41826;53.246;-6.670;2022-11-15T12:48:57;97878.38;;;8.68;100.00
55916;BME280;41826;53.246;-6.670;2022-11-15T13:04:46;97857.44;;;8.88;100.00
55916;BME280;41826;53.246;-6.670;2022-11-15T13:10:07;97851.00;;;8.71;100.00
55916;BME280;41826;53.246;-6.670;2022-11-15T13:22:44;97857.06;;;8.84;100.00
55916;BME280;41826;53.246;-6.670;2022-11-15T13:33:24;97836.16;;;8.71;100.00
55916;BME280;41826;53.246;-6.670;2022-11-15T13:35:53;97832.91;;;8.89;100.00
55916;BME280;41826;53.246;-6.670;2022-11-15T13:38:31;97839.56;;;8.92;100.00
55916;BME280;41826;53.246;-6.670;2022-11-15T13:40:58;97837.09;;;9.10;100.00
55916;BME280;41826;53.246;-6.670;2022-11-15T13:43:42;97841.75;;;8.88;100.00
55916;BME280;41826;53.246;-6.670;2022-11-15T13:48:40;97835.69;;;9.01;100.00
55916;BME280;41826;53.246;-6.670;2022-11-15T13:51:14;97837.72;;;8.92;100.00
55916;BME280;41826;53.246;-6.670;2022-11-15T13:53:45;97844.97;;;8.90;100.00
55916;BME280;41826;53.246;-6.670;2022-11-15T13:56:13;97834.47;;;9.10;100.00
55916;BME280;41826;53.246;-6.670;2022-11-15T13:58:40;97846.38;;;8.93;100.00
55916;BME280;41826;53.246;-6.670;2022-11-15T14:01:05;97844.16;;;9.03;100.00
55916;BME280;41826;53.246;-6.670;2022-11-15T14:03:34;97833.88;;;9.01;100.00
55916;BME280;41826;53.246;-6.670;2022-11-15T14:06:09;97843.56;;;8.81;100.00
55916;BME280;41826;53.246;-6.670;2022-11-15T14:08:42;97834.91;;;8.94;100.00
55916;BME280;41826;53.246;-6.670;2022-11-15T14:11:22;97835.34;;;8.84;100.00
55916;BME280;41826;53.246;-6.670;2022-11-15T14:16:36;97846.41;;;8.66;100.00
55916;BME280;41826;53.246;-6.670;2022-11-15T14:19:03;97828.47;;;8.89;100.00
55916;BME280;41826;53.246;-6.670;2022-11-15T14:21:29;97824.66;;;8.92;100.00
55916;BME280;41826;53.246;-6.670;2022-11-15T14:24:13;97831.31;;;8.81;100.00
55916;BME280;41826;53.246;-6.670;2022-11-15T14:26:39;97815.19;;;8.91;100.00
55916;BME280;41826;53.246;-6.670;2022-11-15T14:29:29;97814.41;;;8.71;100.00
55916;BME280;41826;53.246;-6.670;2022-11-15T14:32:28;97801.94;;;8.79;100.00
55916;BME280;41826;53.246;-6.670;2022-11-15T14:35:01;97794.44;;;8.96;100.00
55916;BME280;41826;53.246;-6.670;2022-11-15T14:37:29;97797.84;;;9.03;100.00
55916;BME280;41826;53.246;-6.670;2022-11-15T14:40:00;97795.28;;;8.97;100.00
55916;BME280;41826;53.246;-6.670;2022-11-15T14:42:25;97800.72;;;8.82;100.00
55916;BME280;41826;53.246;-6.670;2022-11-15T14:44:51;97797.28;;;8.88;100.00
55916;BME280;41826;53.246;-6.670;2022-11-15T14:47:17;97791.06;;;8.76;100.00
55916;BME280;41826;53.246;-6.670;2022-11-15T14:49:45;97784.19;;;8.95;100.00
55916;BME280;41826;53.246;-6.670;2022-11-15T14:52:31;97794.25;;;8.38;100.00
55916;BME280;41826;53.246;-6.670;2022-11-15T14:55:00;97788.69;;;8.41;100.00
55916;BME280;41826;53.246;-6.670;2022-11-15T14:57:27;97795.50;;;8.42;100.00
55916;BME280;41826;53.246;-6.670;2022-11-15T14:59:53;97778.41;;;8.59;100.00
55916;BME280;41826;53.246;-6.670;2022-11-15T15:02:21;97781.03;;;8.66;100.00
55916;BME280;41826;53.246;-6.670;2022-11-15T15:04:47;97785.88;;;8.49;100.00
55916;BME280;41826;53.246;-6.670;2022-11-15T15:07:12;97771.94;;;8.82;100.00
55916;BME280;41826;53.246;-6.670;2022-11-15T15:09:38;97763.09;;;8.83;100.00